sensor_id;sensor_type;location;lat;lon;timestamp;pressure;altitude;pressure_sealevel;temperature;humidity
66560;BME280;53413;49.878;8.142;2023-05-23T00:01:52;99846.59;;;17.01;100.00
66560;BME280;53413;49.878;8.142;2023-05-23T00:04:19;99846.16;;;17.07;100.00
66560;BME280;53413;49.878;8.142;2023-05-23T00:06:44;99841.50;;;17.11;100.00
66560;BME280;53413;49.878;8.142;2023-05-23T00:09:14;99843.00;;;17.15;100.00
66560;BME280;53413;49.878;8.142;2023-05-23T00:11:40;99840.03;;;17.19;100.00
66560;BME280;53413;49.878;8.142;2023-05-23T00:14:13;99829.22;;;17.22;100.00
66560;BME280;53413;49.878;8.142;2023-05-23T00:16:42;99829.03;;;17.26;100.00
66560;BME280;53413;49.878;8.142;2023-05-23T00:19:12;99837.19;;;17.22;100.00
66560;BME280;53413;49.878;8.142;2023-05-23T00:21:45;99841.72;;;17.20;100.00
66560;BME280;53413;49.878;8.142;2023-05-23T00:24:15;99831.13;;;17.20;100.00
66560;BME280;53413;49.878;8.142;2023-05-23T00:26:43;99828.38;;;17.22;100.00
66560;BME280;53413;49.878;8.142;2023-05-23T00:29:08;99840.78;;;17.21;100.00
66560;BME280;53413;49.878;8.142;2023-05-23T00:31:45;99839.47;;;17.14;100.00
66560;BME280;53413;49.878;8.142;2023-05-23T00:34:14;99834.94;;;17.03;100.00
66560;BME280;53413;49.878;8.142;2023-05-23T00:36:41;99839.81;;;16.97;100.00
66560;BME280;53413;49.878;8.142;2023-05-23T00:39:07;99845.47;;;16.90;100.00
66560;BME280;53413;49.878;8.142;2023-05-23T00:41:33;99846.00;;;16.83;100.00
66560;BME280;53413;49.878;8.142;2023-05-23T00:44:01;99841.97;;;16.77;100.00
66560;BME280;53413;49.878;8.142;2023-05-23T00:46:27;99857.19;;;16.73;100.00
66560;BME280;53413;49.878;8.142;2023-05-23T00:48:53;99844.81;;;16.74;100.00
66560;BME280;53413;49.878;8.142;2023-05-23T00:51:19;99847.16;;;16.78;100.00
66560;BME280;53413;49.878;8.142;2023-05-23T00:53:45;99837.41;;;16.79;100.00
66560;BME280;53413;49.878;8.142;2023-05-23T00:56:11;99847.91;;;16.81;100.00
66560;BME280;53413;49.878;8.142;2023-05-23T00:58:38;99843.38;;;16.83;100.00
66560;BME280;53413;49.878;8.142;2023-05-23T01:01:05;99850.34;;;16.84;100.00
66560;BME280;53413;49.878;8.142;2023-05-23T01:03:30;99844.31;;;16.82;100.00
66560;BME280;53413;49.878;8.142;2023-05-23T01:05:56;99848.22;;;16.76;100.00
66560;BME280;53413;49.878;8.142;2023-05-23T01:08:21;99855.09;;;16.78;100.00
66560;BME280;53413;49.878;8.142;2023-05-23T01:10:47;99861.78;;;16.84;100.00
66560;BME280;53413;49.878;8.142;2023-05-23T01:13:24;99861.34;;;16.90;100.00
66560;BME280;53413;49.878;8.142;2023-05-23T01:16:00;99861.16;;;16.93;100.00
66560;BME280;53413;49.878;8.142;2023-05-23T01:18:38;99860.66;;;17.01;100.00
66560;BME280;53413;49.878;8.142;2023-05-23T01:21:16;99859.28;;;17.08;100.00
66560;BME280;53413;49.878;8.142;2023-05-23T01:29:12;99864.41;;;17.25;100.00
66560;BME280;53413;49.878;8.142;2023-05-23T01:31:42;99867.13;;;17.23;100.00
66560;BME280;53413;49.878;8.142;2023-05-23T01:34:13;99854.66;;;17.12;100.00
66560;BME280;53413;49.878;8.142;2023-05-23T01:36:41;99869.09;;;16.93;100.00
66560;BME280;53413;49.878;8.142;2023-05-23T01:39:06;99867.03;;;16.71;100.00
66560;BME280;53413;49.878;8.142;2023-05-23T01:41:32;99860.31;;;16.53;100.00
66560;BME280;53413;49.878;8.142;2023-05-23T01:43:57;99865.00;;;16.35;100.00
66560;BME280;53413;49.878;8.142;2023-05-23T01:46:23;99866.09;;;16.18;100.00
66560;BME280;53413;49.878;8.142;2023-05-23T01:48:49;99863.56;;;16.02;100.00
66560;BME280;53413;49.878;8.142;2023-05-23T01:51:15;99869.63;;;15.89;100.00
66560;BME280;53413;49.878;8.142;2023-05-23T01:53:42;99870.19;;;15.80;100.00
66560;BME280;53413;49.878;8.142;2023-05-23T01:56:07;99876.13;;;15.69;100.00
66560;BME280;53413;49.878;8.142;2023-05-23T01:58:33;99879.34;;;15.60;100.00
66560;BME280;53413;49.878;8.142;2023-05-23T02:00:58;99881.69;;;15.50;100.00
66560;BME280;53413;49.878;8.142;2023-05-23T02:03:24;99884.91;;;15.41;100.00
66560;BME280;53413;49.878;8.142;2023-05-23T02:05:50;99880.94;;;15.33;100.00
66560;BME280;53413;49.878;8.142;2023-05-23T02:08:15;99883.09;;;15.27;100.00
66560;BME280;53413;49.878;8.142;2023-05-23T02:10:41;99888.81;;;15.19;100.00
66560;BME280;53413;49.878;8.142;2023-05-23T02:13:07;99890.31;;;15.08;100.00
66560;BME280;53413;49.878;8.142;2023-05-23T02:15:32;99896.13;;;14.99;100.00
66560;BME280;53413;49.878;8.142;2023-05-23T02:18:00;99891.22;;;14.93;100.00
66560;BME280;53413;49.878;8.142;2023-05-23T02:20:27;99891.56;;;14.87;100.00
66560;BME280;53413;49.878;8.142;2023-05-23T02:22:52;99897.97;;;14.83;100.00
66560;BME280;53413;49.878;8.142;2023-05-23T02:25:17;99901.81;;;14.77;100.00
66560;BME280;53413;49.878;8.142;2023-05-23T02:27:43;99898.66;;;14.70;100.00
66560;BME280;53413;49.878;8.142;2023-05-23T02:30:09;99898.97;;;14.64;100.00
66560;BME280;53413;49.878;8.142;2023-05-23T02:32:34;99905.53;;;14.57;100.00
66560;BME280;53413;49.878;8.142;2023-05-23T02:35:01;99904.16;;;14.50;100.00
66560;BME280;53413;49.878;8.142;2023-05-23T02:37:27;99915.84;;;14.45;100.00
66560;BME280;53413;49.878;8.142;2023-05-23T02:39:52;99916.00;;;14.42;100.00
66560;BME280;53413;49.878;8.142;2023-05-23T02:42:17;99916.94;;;14.41;100.00
66560;BME280;53413;49.878;8.142;2023-05-23T02:44:43;99916.94;;;14.41;100.00
66560;BME280;53413;49.878;8.142;2023-05-23T02:47:08;99922.38;;;14.38;100.00
66560;BME280;53413;49.878;8.142;2023-05-23T02:49:34;99919.69;;;14.40;100.00
66560;BME280;53413;49.878;8.142;2023-05-23T02:52:00;99929.53;;;14.36;100.00
66560;BME280;53413;49.878;8.142;2023-05-23T02:54:25;99927.06;;;14.33;100.00
66560;BME280;53413;49.878;8.142;2023-05-23T02:56:50;99924.50;;;14.31;100.00
66560;BME280;53413;49.878;8.142;2023-05-23T02:59:17;99928.16;;;14.29;100.00
66560;BME280;53413;49.878;8.142;2023-05-23T03:01:43;99923.06;;;14.26;100.00
66560;BME280;53413;49.878;8.142;2023-05-23T03:04:08;99926.81;;;14.22;100.00
66560;BME280;53413;49.878;8.142;2023-05-23T03:06:34;99925.44;;;14.14;100.00
66560;BME280;53413;49.878;8.142;2023-05-23T03:09:00;99927.66;;;14.06;100.00
66560;BME280;53413;49.878;8.142;2023-05-23T03:11:26;99928.00;;;14.00;100.00
66560;BME280;53413;49.878;8.142;2023-05-23T03:13:52;99935.13;;;13.98;100.00
66560;BME280;53413;49.878;8.142;2023-05-23T03:16:17;99938.75;;;13.95;100.00
66560;BME280;53413;49.878;8.142;2023-05-23T03:18:42;99949.53;;;13.91;100.00
66560;BME280;53413;49.878;8.142;2023-05-23T03:21:08;99941.72;;;13.89;100.00
66560;BME280;53413;49.878;8.142;2023-05-23T03:23:34;99951.09;;;13.95;100.00
66560;BME280;53413;49.878;8.142;2023-05-23T03:26:01;99941.31;;;13.97;100.00
66560;BME280;53413;49.878;8.142;2023-05-23T03:28:27;99942.16;;;13.97;100.00
66560;BME280;53413;49.878;8.142;2023-05-23T03:30:53;99954.50;;;13.97;100.00
66560;BME280;53413;49.878;8.142;2023-05-23T03:33:18;99947.50;;;13.96;100.00
66560;BME280;53413;49.878;8.142;2023-05-23T03:35:43;99947.50;;;13.96;100.00
66560;BME280;53413;49.878;8.142;2023-05-23T03:38:09;99948.53;;;13.93;100.00
66560;BME280;53413;49.878;8.142;2023-05-23T03:40:34;99949.38;;;13.94;100.00
66560;BME280;53413;49.878;8.142;2023-05-23T03:43:04;99948.34;;;13.96;100.00
66560;BME280;53413;49.878;8.142;2023-05-23T03:45:31;99933.41;;;13.97;100.00
66560;BME280;53413;49.878;8.142;2023-05-23T03:47:58;99942.09;;;13.99;100.00
66560;BME280;53413;49.878;8.142;2023-05-23T03:50:23;99942.78;;;14.03;100.00
66560;BME280;53413;49.878;8.142;2023-05-23T03:52:49;99946.19;;;14.05;100.00
66560;BME280;53413;49.878;8.142;2023-05-23T03:55:14;99953.84;;;14.09;100.00
66560;BME280;53413;49.878;8.142;2023-05-23T03:57:41;99953.59;;;14.14;100.00
66560;BME280;53413;49.878;8.142;2023-05-23T04:00:07;99959.38;;;14.21;100.00
66560;BME280;53413;49.878;8.142;2023-05-23T04:02:36;99966.34;;;14.38;100.00
66560;BME280;53413;49.878;8.142;2023-05-23T04:05:03;99960.91;;;14.57;100.00
66560;BME280;53413;49.878;8.142;2023-05-23T04:07:29;99972.31;;;14.73;100.00
66560;BME280;53413;49.878;8.142;2023-05-23T04:09:58;99966.34;;;14.86;100.00
66560;BME280;53413;49.878;8.142;2023-05-23T04:12:24;99961.69;;;14.91;100.00
66560;BME280;53413;49.878;8.142;2023-05-23T04:14:49;99963.13;;;14.97;100.00
66560;BME280;53413;49.878;8.142;2023-05-23T04:17:15;99964.38;;;15.05;100.00
66560;BME280;53413;49.878;8.142;2023-05-23T04:19:40;99971.84;;;15.13;100.00
66560;BME280;53413;49.878;8.142;2023-05-23T04:22:05;99967.56;;;15.27;100.00
66560;BME280;53413;49.878;8.142;2023-05-23T04:24:31;99974.19;;;15.34;100.00
66560;BME280;53413;49.878;8.142;2023-05-23T04:26:56;99974.66;;;15.41;100.00
66560;BME280;53413;49.878;8.142;2023-05-23T04:29:24;99982.22;;;15.47;100.00
66560;BME280;53413;49.878;8.142;2023-05-23T04:31:50;99981.47;;;15.59;100.00
66560;BME280;53413;49.878;8.142;2023-05-23T04:34:16;99981.13;;;15.65;100.00
66560;BME280;53413;49.878;8.142;2023-05-23T04:36:42;99980.69;;;15.73;100.00
66560;BME280;53413;49.878;8.142;2023-05-23T04:39:08;99984.16;;;15.74;100.00
66560;BME280;53413;49.878;8.142;2023-05-23T04:41:34;99980.94;;;15.68;100.00
66560;BME280;53413;49.878;8.142;2023-05-23T04:44:00;99985.47;;;15.66;100.00
66560;BME280;53413;49.878;8.142;2023-05-23T04:46:26;99987.66;;;15.74;100.00
66560;BME280;53413;49.878;8.142;2023-05-23T04:48:52;99996.66;;;15.86;100.00
66560;BME280;53413;49.878;8.142;2023-05-23T04:51:19;99989.69;;;15.99;100.00
66560;BME280;53413;49.878;8.142;2023-05-23T04:53:46;99987.88;;;16.14;100.00
66560;BME280;53413;49.878;8.142;2023-05-23T04:56:12;99995.91;;;16.27;100.00
66560;BME280;53413;49.878;8.142;2023-05-23T04:58:37;99994.16;;;16.55;100.00
66560;BME280;53413;49.878;8.142;2023-05-23T05:01:04;99998.75;;;16.81;100.00
66560;BME280;53413;49.878;8.142;2023-05-23T05:03:30;100006.38;;;17.00;100.00
66560;BME280;53413;49.878;8.142;2023-05-23T05:05:56;100002.47;;;17.05;100.00
66560;BME280;53413;49.878;8.142;2023-05-23T05:08:21;100001.72;;;17.03;100.00
66560;BME280;53413;49.878;8.142;2023-05-23T05:10:47;100004.97;;;16.94;100.00
66560;BME280;53413;49.878;8.142;2023-05-23T05:13:12;100012.94;;;17.07;100.00
66560;BME280;53413;49.878;8.142;2023-05-23T05:15:38;100011.00;;;17.23;100.00
66560;BME280;53413;49.878;8.142;2023-05-23T05:18:03;100014.72;;;17.34;100.00
66560;BME280;53413;49.878;8.142;2023-05-23T05:20:28;100013.47;;;17.39;100.00
66560;BME280;53413;49.878;8.142;2023-05-23T05:22:55;100016.75;;;17.43;100.00
66560;BME280;53413;49.878;8.142;2023-05-23T05:25:22;100017.84;;;17.53;100.00
66560;BME280;53413;49.878;8.142;2023-05-23T05:27:47;100021.47;;;17.65;100.00
66560;BME280;53413;49.878;8.142;2023-05-23T05:30:13;100019.66;;;17.66;100.00
66560;BME280;53413;49.878;8.142;2023-05-23T05:32:39;100023.50;;;17.62;100.00
66560;BME280;53413;49.878;8.142;2023-05-23T05:35:04;100027.81;;;17.63;100.00
66560;BME280;53413;49.878;8.142;2023-05-23T05:37:32;100029.72;;;17.61;100.00
66560;BME280;53413;49.878;8.142;2023-05-23T05:39:57;100040.53;;;17.70;100.00
66560;BME280;53413;49.878;8.142;2023-05-23T05:42:23;100031.22;;;17.91;100.00
66560;BME280;53413;49.878;8.142;2023-05-23T05:44:48;100035.19;;;18.11;100.00
66560;BME280;53413;49.878;8.142;2023-05-23T05:47:15;100033.19;;;18.27;100.00
66560;BME280;53413;49.878;8.142;2023-05-23T05:49:40;100039.69;;;18.48;100.00
66560;BME280;53413;49.878;8.142;2023-05-23T05:52:07;100051.25;;;18.59;100.00
66560;BME280;53413;49.878;8.142;2023-05-23T05:54:32;100049.03;;;18.53;100.00
66560;BME280;53413;49.878;8.142;2023-05-23T05:56:57;100051.69;;;18.53;100.00
66560;BME280;53413;49.878;8.142;2023-05-23T05:59:23;100059.63;;;18.66;100.00
66560;BME280;53413;49.878;8.142;2023-05-23T06:01:48;100060.38;;;18.68;100.00
66560;BME280;53413;49.878;8.142;2023-05-23T06:04:16;100069.22;;;18.56;100.00
66560;BME280;53413;49.878;8.142;2023-05-23T06:06:41;100065.72;;;18.42;100.00
66560;BME280;53413;49.878;8.142;2023-05-23T06:09:07;100070.06;;;18.30;100.00
66560;BME280;53413;49.878;8.142;2023-05-23T06:11:32;100057.34;;;18.23;100.00
66560;BME280;53413;49.878;8.142;2023-05-23T06:13:58;100074.66;;;18.15;100.00
66560;BME280;53413;49.878;8.142;2023-05-23T06:16:23;100087.38;;;18.10;100.00
66560;BME280;53413;49.878;8.142;2023-05-23T06:18:48;100088.78;;;18.16;100.00
66560;BME280;53413;49.878;8.142;2023-05-23T06:21:14;100080.03;;;18.53;100.00
66560;BME280;53413;49.878;8.142;2023-05-23T06:23:39;100087.00;;;18.80;97.20
66560;BME280;53413;49.878;8.142;2023-05-23T06:26:05;100080.41;;;19.22;94.36
66560;BME280;53413;49.878;8.142;2023-05-23T06:28:34;100084.34;;;19.65;91.82
66560;BME280;53413;49.878;8.142;2023-05-23T06:31:00;100080.34;;;19.95;87.49
66560;BME280;53413;49.878;8.142;2023-05-23T06:33:25;100078.38;;;19.86;86.80
66560;BME280;53413;49.878;8.142;2023-05-23T06:35:50;100078.50;;;19.60;87.46
66560;BME280;53413;49.878;8.142;2023-05-23T06:38:16;100079.47;;;19.59;88.50
66560;BME280;53413;49.878;8.142;2023-05-23T06:40:41;100081.69;;;19.65;88.46
66560;BME280;53413;49.878;8.142;2023-05-23T06:43:06;100087.44;;;19.59;87.91
66560;BME280;53413;49.878;8.142;2023-05-23T06:45:32;100080.34;;;19.35;87.65
66560;BME280;53413;49.878;8.142;2023-05-23T06:47:59;100093.28;;;19.16;88.85
66560;BME280;53413;49.878;8.142;2023-05-23T06:50:25;100096.53;;;18.95;90.12
66560;BME280;53413;49.878;8.142;2023-05-23T06:52:50;100103.69;;;18.82;91.04
66560;BME280;53413;49.878;8.142;2023-05-23T06:55:15;100105.91;;;18.75;92.18
66560;BME280;53413;49.878;8.142;2023-05-23T06:57:43;100104.47;;;18.58;92.81
66560;BME280;53413;49.878;8.142;2023-05-23T07:00:09;100109.34;;;18.51;93.92
66560;BME280;53413;49.878;8.142;2023-05-23T07:02:37;100103.91;;;18.53;93.83
66560;BME280;53413;49.878;8.142;2023-05-23T07:05:03;100104.22;;;18.61;94.47
66560;BME280;53413;49.878;8.142;2023-05-23T07:07:28;100099.94;;;18.71;94.15
66560;BME280;53413;49.878;8.142;2023-05-23T07:09:54;100101.72;;;18.84;95.54
66560;BME280;53413;49.878;8.142;2023-05-23T07:12:19;100109.69;;;18.84;94.47
66560;BME280;53413;49.878;8.142;2023-05-23T07:14:44;100110.91;;;18.80;93.96
66560;BME280;53413;49.878;8.142;2023-05-23T07:17:10;100115.25;;;18.81;94.19
66560;BME280;53413;49.878;8.142;2023-05-23T07:19:36;100117.03;;;18.80;94.68
66560;BME280;53413;49.878;8.142;2023-05-23T07:22:01;100121.50;;;18.80;94.45
66560;BME280;53413;49.878;8.142;2023-05-23T07:24:27;100121.84;;;18.62;94.98
66560;BME280;53413;49.878;8.142;2023-05-23T07:26:52;100110.72;;;18.57;95.38
66560;BME280;53413;49.878;8.142;2023-05-23T07:29:18;100112.69;;;18.92;94.91
66560;BME280;53413;49.878;8.142;2023-05-23T07:31:43;100104.25;;;19.35;93.10
66560;BME280;53413;49.878;8.142;2023-05-23T07:34:08;100110.22;;;20.10;90.54
66560;BME280;53413;49.878;8.142;2023-05-23T07:36:34;100107.50;;;20.57;86.51
66560;BME280;53413;49.878;8.142;2023-05-23T07:39:02;100113.78;;;20.90;83.49
66560;BME280;53413;49.878;8.142;2023-05-23T07:41:27;100111.13;;;20.90;83.09
66560;BME280;53413;49.878;8.142;2023-05-23T07:43:52;100113.78;;;20.90;82.21
66560;BME280;53413;49.878;8.142;2023-05-23T07:46:18;100112.69;;;20.70;82.55
66560;BME280;53413;49.878;8.142;2023-05-23T07:48:44;100124.91;;;20.39;84.10
66560;BME280;53413;49.878;8.142;2023-05-23T07:51:09;100120.19;;;20.20;85.15
66560;BME280;53413;49.878;8.142;2023-05-23T07:53:34;100117.44;;;19.97;87.43
66560;BME280;53413;49.878;8.142;2023-05-23T07:56:04;100115.53;;;19.99;86.78
66560;BME280;53413;49.878;8.142;2023-05-23T07:58:29;100123.66;;;20.09;87.48
66560;BME280;53413;49.878;8.142;2023-05-23T08:00:55;100122.53;;;20.00;88.07
66560;BME280;53413;49.878;8.142;2023-05-23T08:03:22;100122.16;;;19.93;88.07
66560;BME280;53413;49.878;8.142;2023-05-23T08:05:47;100123.97;;;19.93;87.90
66560;BME280;53413;49.878;8.142;2023-05-23T08:08:13;100124.09;;;20.03;87.70
66560;BME280;53413;49.878;8.142;2023-05-23T08:10:38;100122.22;;;20.27;87.12
66560;BME280;53413;49.878;8.142;2023-05-23T08:13:04;100126.38;;;20.66;84.81
66560;BME280;53413;49.878;8.142;2023-05-23T08:15:31;100131.53;;;21.24;82.19
66560;BME280;53413;49.878;8.142;2023-05-23T08:17:58;100123.88;;;21.96;79.65
66560;BME280;53413;49.878;8.142;2023-05-23T08:20:24;100128.50;;;22.36;77.80
66560;BME280;53413;49.878;8.142;2023-05-23T08:23:03;100119.31;;;25.60;69.01
66560;BME280;53413;49.878;8.142;2023-05-23T08:25:29;100121.84;;;31.13;53.50
66560;BME280;53413;49.878;8.142;2023-05-23T08:27:58;100129.66;;;32.45;45.32
66560;BME280;53413;49.878;8.142;2023-05-23T08:30:25;100131.72;;;31.42;45.91
66560;BME280;53413;49.878;8.142;2023-05-23T08:32:55;100137.50;;;29.74;47.37
66560;BME280;53413;49.878;8.142;2023-05-23T08:35:21;100132.47;;;28.12;50.73
66560;BME280;53413;49.878;8.142;2023-05-23T08:37:47;100143.00;;;26.53;53.02
66560;BME280;53413;49.878;8.142;2023-05-23T08:40:17;100143.16;;;25.63;55.74
66560;BME280;53413;49.878;8.142;2023-05-23T08:42:43;100140.53;;;25.71;55.85
66560;BME280;53413;49.878;8.142;2023-05-23T08:45:09;100138.38;;;26.72;54.55
66560;BME280;53413;49.878;8.142;2023-05-23T08:47:36;100143.63;;;26.47;53.86
66560;BME280;53413;49.878;8.142;2023-05-23T08:50:05;100149.13;;;25.57;55.89
66560;BME280;53413;49.878;8.142;2023-05-23T08:52:34;100148.84;;;24.86;57.38
66560;BME280;53413;49.878;8.142;2023-05-23T08:55:01;100147.84;;;26.50;55.40
66560;BME280;53413;49.878;8.142;2023-05-23T08:57:29;100157.78;;;26.84;53.74
66560;BME280;53413;49.878;8.142;2023-05-23T08:59:55;100154.66;;;27.64;52.04
66560;BME280;53413;49.878;8.142;2023-05-23T09:02:21;100150.06;;;29.04;49.44
66560;BME280;53413;49.878;8.142;2023-05-23T09:04:46;100146.72;;;30.71;46.45
66560;BME280;53413;49.878;8.142;2023-05-23T09:07:14;100150.38;;;31.74;44.16
66560;BME280;53413;49.878;8.142;2023-05-23T09:09:40;100154.31;;;31.71;43.49
66560;BME280;53413;49.878;8.142;2023-05-23T09:12:06;100149.78;;;31.57;43.75
66560;BME280;53413;49.878;8.142;2023-05-23T09:14:31;100152.41;;;31.28;43.79
66560;BME280;53413;49.878;8.142;2023-05-23T09:17:00;100150.75;;;33.40;40.99
66560;BME280;53413;49.878;8.142;2023-05-23T09:19:27;100148.75;;;34.88;37.94
66560;BME280;53413;49.878;8.142;2023-05-23T09:21:53;100154.31;;;32.92;38.90
66560;BME280;53413;49.878;8.142;2023-05-23T09:24:18;100159.84;;;30.75;41.58
66560;BME280;53413;49.878;8.142;2023-05-23T09:26:47;100159.81;;;28.74;44.39
66560;BME280;53413;49.878;8.142;2023-05-23T09:29:12;100159.59;;;27.18;47.67
66560;BME280;53413;49.878;8.142;2023-05-23T09:31:38;100158.47;;;25.89;51.08
66560;BME280;53413;49.878;8.142;2023-05-23T09:34:03;100167.34;;;24.79;53.54
66560;BME280;53413;49.878;8.142;2023-05-23T09:36:29;100159.06;;;23.95;55.88
66560;BME280;53413;49.878;8.142;2023-05-23T09:39:03;100161.53;;;23.38;57.82
66560;BME280;53413;49.878;8.142;2023-05-23T09:41:33;100162.94;;;22.91;58.58
66560;BME280;53413;49.878;8.142;2023-05-23T09:44:07;100158.50;;;22.71;59.55
66560;BME280;53413;49.878;8.142;2023-05-23T09:46:35;100166.13;;;22.75;60.09
66560;BME280;53413;49.878;8.142;2023-05-23T09:49:01;100159.91;;;23.16;60.07
66560;BME280;53413;49.878;8.142;2023-05-23T09:51:28;100161.03;;;23.74;59.08
66560;BME280;53413;49.878;8.142;2023-05-23T09:53:53;100154.09;;;24.20;57.71
66560;BME280;53413;49.878;8.142;2023-05-23T09:56:19;100165.38;;;24.62;56.47
66560;BME280;53413;49.878;8.142;2023-05-23T09:58:49;100160.41;;;25.14;55.15
66560;BME280;53413;49.878;8.142;2023-05-23T10:01:15;100167.63;;;25.32;54.26
66560;BME280;53413;49.878;8.142;2023-05-23T10:03:47;100164.97;;;25.04;54.56
66560;BME280;53413;49.878;8.142;2023-05-23T10:09:23;100166.66;;;24.10;56.85
66560;BME280;53413;49.878;8.142;2023-05-23T10:14:43;100178.72;;;23.55;58.04
66560;BME280;53413;49.878;8.142;2023-05-23T10:17:22;100168.78;;;23.16;60.43
66560;BME280;53413;49.878;8.142;2023-05-23T10:19:58;100175.47;;;23.01;61.37
66560;BME280;53413;49.878;8.142;2023-05-23T10:22:25;100170.91;;;22.82;61.81
66560;BME280;53413;49.878;8.142;2023-05-23T10:24:51;100184.59;;;22.57;62.67
66560;BME280;53413;49.878;8.142;2023-05-23T10:27:18;100183.72;;;22.36;63.26
66560;BME280;53413;49.878;8.142;2023-05-23T10:29:43;100186.13;;;22.18;64.59
66560;BME280;53413;49.878;8.142;2023-05-23T10:32:10;100190.94;;;22.24;64.05
66560;BME280;53413;49.878;8.142;2023-05-23T10:37:20;100194.78;;;22.10;64.96
66560;BME280;53413;49.878;8.142;2023-05-23T10:45:13;100197.03;;;21.49;67.59
66560;BME280;53413;49.878;8.142;2023-05-23T10:47:39;100197.78;;;21.40;68.11
66560;BME280;53413;49.878;8.142;2023-05-23T10:50:05;100189.22;;;21.80;67.75
66560;BME280;53413;49.878;8.142;2023-05-23T10:52:38;100197.09;;;22.88;64.77
66560;BME280;53413;49.878;8.142;2023-05-23T10:55:12;100195.97;;;24.21;62.55
66560;BME280;53413;49.878;8.142;2023-05-23T10:57:38;100186.59;;;24.45;60.59
66560;BME280;53413;49.878;8.142;2023-05-23T11:00:04;100194.94;;;24.32;59.59
66560;BME280;53413;49.878;8.142;2023-05-23T11:02:29;100202.59;;;23.97;60.73
66560;BME280;53413;49.878;8.142;2023-05-23T11:05:17;100197.47;;;23.94;60.96
66560;BME280;53413;49.878;8.142;2023-05-23T11:07:43;100196.66;;;23.84;61.63
66560;BME280;53413;49.878;8.142;2023-05-23T11:10:12;100205.91;;;23.50;62.61
66560;BME280;53413;49.878;8.142;2023-05-23T11:12:42;100198.34;;;23.15;63.68
66560;BME280;53413;49.878;8.142;2023-05-23T11:15:28;100210.97;;;22.51;64.23
66560;BME280;53413;49.878;8.142;2023-05-23T11:18:06;100211.25;;;22.15;65.70
66560;BME280;53413;49.878;8.142;2023-05-23T11:20:32;100206.53;;;21.86;66.21
66560;BME280;53413;49.878;8.142;2023-05-23T11:22:59;100212.41;;;21.57;67.30
66560;BME280;53413;49.878;8.142;2023-05-23T11:25:44;100217.91;;;21.44;69.16
66560;BME280;53413;49.878;8.142;2023-05-23T11:28:12;100222.97;;;21.70;68.84
66560;BME280;53413;49.878;8.142;2023-05-23T11:30:39;100210.47;;;22.03;68.16
66560;BME280;53413;49.878;8.142;2023-05-23T11:33:07;100205.88;;;22.48;66.96
66560;BME280;53413;49.878;8.142;2023-05-23T11:35:48;100204.97;;;22.89;66.30
66560;BME280;53413;49.878;8.142;2023-05-23T11:38:17;100215.28;;;23.35;64.69
66560;BME280;53413;49.878;8.142;2023-05-23T11:40:44;100210.88;;;23.75;62.17
66560;BME280;53413;49.878;8.142;2023-05-23T11:43:15;100206.97;;;23.98;61.75
66560;BME280;53413;49.878;8.142;2023-05-23T11:45:43;100206.09;;;24.27;61.04
66560;BME280;53413;49.878;8.142;2023-05-23T11:48:12;100203.47;;;24.65;60.24
66560;BME280;53413;49.878;8.142;2023-05-23T11:50:51;100206.00;;;24.77;59.50
66560;BME280;53413;49.878;8.142;2023-05-23T11:53:18;100216.63;;;24.39;60.40
66560;BME280;53413;49.878;8.142;2023-05-23T11:58:14;100215.66;;;23.81;61.38
66560;BME280;53413;49.878;8.142;2023-05-23T12:00:44;100223.13;;;23.87;61.39
66560;BME280;53413;49.878;8.142;2023-05-23T12:03:10;100218.47;;;23.89;60.57
66560;BME280;53413;49.878;8.142;2023-05-23T12:05:36;100218.72;;;23.57;61.17
66560;BME280;53413;49.878;8.142;2023-05-23T12:08:01;100223.50;;;22.81;63.00
66560;BME280;53413;49.878;8.142;2023-05-23T12:10:26;100223.75;;;22.47;64.39
66560;BME280;53413;49.878;8.142;2023-05-23T12:12:52;100225.94;;;22.42;64.40
66560;BME280;53413;49.878;8.142;2023-05-23T12:15:18;100234.38;;;22.26;64.79
66560;BME280;53413;49.878;8.142;2023-05-23T12:17:44;100232.78;;;22.02;64.94
66560;BME280;53413;49.878;8.142;2023-05-23T12:20:13;100227.25;;;21.94;64.98
66560;BME280;53413;49.878;8.142;2023-05-23T12:22:40;100235.06;;;21.74;65.31
66560;BME280;53413;49.878;8.142;2023-05-23T12:25:09;100240.75;;;21.70;65.40
66560;BME280;53413;49.878;8.142;2023-05-23T12:27:39;100237.28;;;21.90;65.00
66560;BME280;53413;49.878;8.142;2023-05-23T12:30:15;100230.19;;;22.33;64.21
66560;BME280;53413;49.878;8.142;2023-05-23T12:32:42;100231.47;;;22.71;62.31
66560;BME280;53413;49.878;8.142;2023-05-23T12:35:09;100228.41;;;23.07;62.06
66560;BME280;53413;49.878;8.142;2023-05-23T12:37:43;100224.53;;;23.21;61.49
66560;BME280;53413;49.878;8.142;2023-05-23T12:40:16;100227.63;;;22.95;61.51
66560;BME280;53413;49.878;8.142;2023-05-23T12:42:53;100230.44;;;22.41;61.82
66560;BME280;53413;49.878;8.142;2023-05-23T12:45:32;100238.66;;;21.84;62.37
66560;BME280;53413;49.878;8.142;2023-05-23T12:47:58;100242.13;;;21.30;63.95
66560;BME280;53413;49.878;8.142;2023-05-23T12:50:23;100241.41;;;20.94;65.04
66560;BME280;53413;49.878;8.142;2023-05-23T12:52:48;100235.53;;;20.66;65.98
66560;BME280;53413;49.878;8.142;2023-05-23T12:55:14;100238.88;;;20.45;66.68
66560;BME280;53413;49.878;8.142;2023-05-23T12:57:39;100245.66;;;20.38;66.93
66560;BME280;53413;49.878;8.142;2023-05-23T13:00:05;100235.50;;;20.54;67.40
66560;BME280;53413;49.878;8.142;2023-05-23T13:02:31;100238.16;;;20.90;66.57
66560;BME280;53413;49.878;8.142;2023-05-23T13:04:56;100234.88;;;21.32;65.51
66560;BME280;53413;49.878;8.142;2023-05-23T13:07:22;100231.91;;;21.80;63.81
66560;BME280;53413;49.878;8.142;2023-05-23T13:09:47;100228.78;;;22.29;62.99